Terminal Aerodrome Forecast
Issued by NWS

Home | Current Version | Previous Version | Text Only | Print | Product List | Glossary On
Versions: 1 2 3 4 5 6 7 8 9 10 11 12 13 14 15 16 17 18 19 20 21 22 23 24
751
FTUS45 KABQ 251125
TAFSAF
TAF
KSAF 251125Z 2512/2612 02015KT P6SM SKC
     FM251500 04015G22KT P6SM SKC
     FM251700 11018G28KT P6SM FEW050
     FM260000 13015G22KT P6SM SCT050
     FM260400 13010KT P6SM SCT050=

USA.gov is the U.S. government's official web portal to all federal, state and local government web resources and services.